首页
METAR-TAF:

METAR-TAF

机场 :

Tallahassee Regional Airport

塔拉哈西, 佛罗里达州, 美国

纬度: 30-23-35N, 经度: 084-21-12W, 海拔: 24米

当前天气观测

该预报发布于32分钟前的22:53 UTC
风速8节,风向南转南东
温度 28°C
湿度 62%
气压 1016 hPa
能見度: 16.1公里
少量云层高于5000英尺
少量云层高于8000英尺

METAR: KTLH 132253Z 16008KT 10SM FEW050 FEW080 28/20 A3000 RMK AO2 SLP157 T02780200

时间: 19:25 (23:25 UTC)

预报

该预报发布于6小时和4分钟前的17:21 UTC
预报有效从13日的 18点(UTC)到 14日的 18点(UTC)
风速6节,风向
能見度: 10公里
多云层高于4000英尺

TAF: KTLH 131721Z 1318/1418 18006KT P6SM BKN040

超过4000个机场的气象观测和天气预报(METAR&TAF报告)。

可查询的气象台以黄色和红色小点在地图上表示。

将鼠标移到小点上方,可查看气象台名称。

然后点击查看天气观测和预报。

如需切换地图:点击带黑十字的绿色按钮放大地图;点击带横线的绿色按钮缩小地图;或者点击绿色箭头查看邻近地区的地图。


METAR-TAF: